sensor_id;sensor_type;location;lat;lon;timestamp;pressure;altitude;pressure_sealevel;temperature;humidity
51147;BME280;37207;53.060;18.726;2023-03-16T00:01:40;101001.66;;;-0.80;79.27
51147;BME280;37207;53.060;18.726;2023-03-16T00:04:07;101002.60;;;-0.81;79.27
51147;BME280;37207;53.060;18.726;2023-03-16T00:06:33;100999.66;;;-0.83;78.97
51147;BME280;37207;53.060;18.726;2023-03-16T00:09:03;100995.10;;;-0.85;79.21
51147;BME280;37207;53.060;18.726;2023-03-16T00:11:29;100998.31;;;-0.87;79.29
51147;BME280;37207;53.060;18.726;2023-03-16T00:13:56;101000.89;;;-0.89;79.17
51147;BME280;37207;53.060;18.726;2023-03-16T00:16:24;101001.27;;;-0.89;79.40
51147;BME280;37207;53.060;18.726;2023-03-16T00:18:50;101002.59;;;-0.90;79.37
51147;BME280;37207;53.060;18.726;2023-03-16T00:21:17;101004.45;;;-0.91;79.63
51147;BME280;37207;53.060;18.726;2023-03-16T00:23:43;101004.38;;;-0.92;79.45
51147;BME280;37207;53.060;18.726;2023-03-16T00:26:10;101006.55;;;-0.93;79.59
51147;BME280;37207;53.060;18.726;2023-03-16T00:28:38;101006.11;;;-0.97;79.57
51147;BME280;37207;53.060;18.726;2023-03-16T00:31:07;101009.84;;;-1.00;79.72
51147;BME280;37207;53.060;18.726;2023-03-16T00:33:38;101006.45;;;-1.01;79.72
51147;BME280;37207;53.060;18.726;2023-03-16T00:36:06;101004.40;;;-1.06;79.70
51147;BME280;37207;53.060;18.726;2023-03-16T00:38:37;101006.03;;;-1.11;79.82
51147;BME280;37207;53.060;18.726;2023-03-16T00:41:05;101001.80;;;-1.15;80.00
51147;BME280;37207;53.060;18.726;2023-03-16T00:43:33;101001.29;;;-1.21;80.05
51147;BME280;37207;53.060;18.726;2023-03-16T00:46:07;100996.13;;;-1.25;79.98
51147;BME280;37207;53.060;18.726;2023-03-16T00:48:35;100999.93;;;-1.27;80.44
51147;BME280;37207;53.060;18.726;2023-03-16T00:51:05;101003.88;;;-1.27;80.67
51147;BME280;37207;53.060;18.726;2023-03-16T00:53:33;101001.48;;;-1.28;80.36
51147;BME280;37207;53.060;18.726;2023-03-16T00:56:01;101000.48;;;-1.28;80.38
51147;BME280;37207;53.060;18.726;2023-03-16T00:58:34;100996.13;;;-1.28;80.53
51147;BME280;37207;53.060;18.726;2023-03-16T01:01:06;100999.01;;;-1.27;80.62
51147;BME280;37207;53.060;18.726;2023-03-16T01:03:33;101000.32;;;-1.27;80.57
51147;BME280;37207;53.060;18.726;2023-03-16T01:06:11;101001.79;;;-1.28;80.85
51147;BME280;37207;53.060;18.726;2023-03-16T01:08:39;100997.39;;;-1.30;80.68
51147;BME280;37207;53.060;18.726;2023-03-16T01:11:09;101001.58;;;-1.32;80.82
51147;BME280;37207;53.060;18.726;2023-03-16T01:13:38;100997.24;;;-1.35;80.81
51147;BME280;37207;53.060;18.726;2023-03-16T01:16:05;100995.54;;;-1.36;80.91
51147;BME280;37207;53.060;18.726;2023-03-16T01:18:32;100997.40;;;-1.37;81.01
51147;BME280;37207;53.060;18.726;2023-03-16T01:21:05;101003.83;;;-1.36;80.77
51147;BME280;37207;53.060;18.726;2023-03-16T01:23:34;101003.90;;;-1.36;81.00
51147;BME280;37207;53.060;18.726;2023-03-16T01:26:01;101003.29;;;-1.35;80.85
51147;BME280;37207;53.060;18.726;2023-03-16T01:28:30;101014.73;;;-1.34;80.94
51147;BME280;37207;53.060;18.726;2023-03-16T01:31:11;101016.91;;;-1.34;80.98
51147;BME280;37207;53.060;18.726;2023-03-16T01:33:40;101021.55;;;-1.34;81.00
51147;BME280;37207;53.060;18.726;2023-03-16T01:36:13;101021.48;;;-1.34;80.93
51147;BME280;37207;53.060;18.726;2023-03-16T01:38:49;101019.25;;;-1.38;80.88
51147;BME280;37207;53.060;18.726;2023-03-16T01:41:16;101021.83;;;-1.42;80.99
51147;BME280;37207;53.060;18.726;2023-03-16T01:43:43;101021.38;;;-1.44;81.07
51147;BME280;37207;53.060;18.726;2023-03-16T01:46:17;101020.83;;;-1.44;81.53
51147;BME280;37207;53.060;18.726;2023-03-16T01:49:10;101026.95;;;-1.45;81.29
51147;BME280;37207;53.060;18.726;2023-03-16T01:51:41;101028.20;;;-1.49;81.61
51147;BME280;37207;53.060;18.726;2023-03-16T01:54:22;101028.50;;;-1.49;81.86
51147;BME280;37207;53.060;18.726;2023-03-16T01:57:10;101025.83;;;-1.55;81.45
51147;BME280;37207;53.060;18.726;2023-03-16T01:59:45;101025.30;;;-1.59;81.66
51147;BME280;37207;53.060;18.726;2023-03-16T02:02:18;101027.08;;;-1.62;81.75
51147;BME280;37207;53.060;18.726;2023-03-16T02:05:04;101027.64;;;-1.65;81.41
51147;BME280;37207;53.060;18.726;2023-03-16T02:07:40;101037.85;;;-1.68;81.64
51147;BME280;37207;53.060;18.726;2023-03-16T02:10:09;101038.48;;;-1.69;81.69
51147;BME280;37207;53.060;18.726;2023-03-16T02:12:38;101038.71;;;-1.70;81.80
51147;BME280;37207;53.060;18.726;2023-03-16T02:15:05;101033.75;;;-1.72;82.17
51147;BME280;37207;53.060;18.726;2023-03-16T02:17:34;101034.77;;;-1.72;81.96
51147;BME280;37207;53.060;18.726;2023-03-16T02:20:28;101036.30;;;-1.71;82.10
51147;BME280;37207;53.060;18.726;2023-03-16T02:22:58;101036.70;;;-1.68;82.63
51147;BME280;37207;53.060;18.726;2023-03-16T02:25:32;101037.92;;;-1.67;82.58
51147;BME280;37207;53.060;18.726;2023-03-16T02:28:14;101043.35;;;-1.67;82.34
51147;BME280;37207;53.060;18.726;2023-03-16T02:30:46;101046.36;;;-1.65;82.39
51147;BME280;37207;53.060;18.726;2023-03-16T02:33:15;101049.45;;;-1.65;82.52
51147;BME280;37207;53.060;18.726;2023-03-16T02:35:43;101049.07;;;-1.64;82.67
51147;BME280;37207;53.060;18.726;2023-03-16T02:38:10;101048.60;;;-1.63;82.77
51147;BME280;37207;53.060;18.726;2023-03-16T02:40:41;101048.36;;;-1.62;82.47
51147;BME280;37207;53.060;18.726;2023-03-16T02:43:18;101048.75;;;-1.60;82.70
51147;BME280;37207;53.060;18.726;2023-03-16T02:46:10;101050.15;;;-1.60;82.67
51147;BME280;37207;53.060;18.726;2023-03-16T02:51:09;101053.86;;;-1.58;82.95
51147;BME280;37207;53.060;18.726;2023-03-16T02:53:36;101060.75;;;-1.59;82.85
51147;BME280;37207;53.060;18.726;2023-03-16T02:56:03;101060.67;;;-1.58;82.67
51147;BME280;37207;53.060;18.726;2023-03-16T02:58:32;101059.43;;;-1.58;83.25
51147;BME280;37207;53.060;18.726;2023-03-16T03:01:00;101063.77;;;-1.58;83.22
51147;BME280;37207;53.060;18.726;2023-03-16T03:03:27;101068.89;;;-1.60;83.27
51147;BME280;37207;53.060;18.726;2023-03-16T03:05:53;101067.48;;;-1.60;83.26
51147;BME280;37207;53.060;18.726;2023-03-16T03:08:20;101066.48;;;-1.61;83.43
51147;BME280;37207;53.060;18.726;2023-03-16T03:10:48;101066.95;;;-1.61;83.30
51147;BME280;37207;53.060;18.726;2023-03-16T03:13:15;101066.02;;;-1.61;83.38
51147;BME280;37207;53.060;18.726;2023-03-16T03:15:42;101063.70;;;-1.61;83.41
51147;BME280;37207;53.060;18.726;2023-03-16T03:18:10;101067.95;;;-1.61;83.50
51147;BME280;37207;53.060;18.726;2023-03-16T03:20:36;101068.96;;;-1.62;83.55
51147;BME280;37207;53.060;18.726;2023-03-16T03:23:03;101068.73;;;-1.63;83.42
51147;BME280;37207;53.060;18.726;2023-03-16T03:25:30;101070.59;;;-1.64;83.73
51147;BME280;37207;53.060;18.726;2023-03-16T03:28:02;101071.36;;;-1.66;83.61
51147;BME280;37207;53.060;18.726;2023-03-16T03:30:30;101071.90;;;-1.66;83.62
51147;BME280;37207;53.060;18.726;2023-03-16T03:32:58;101075.00;;;-1.65;83.86
51147;BME280;37207;53.060;18.726;2023-03-16T03:35:24;101074.23;;;-1.65;83.74
51147;BME280;37207;53.060;18.726;2023-03-16T03:37:51;101074.30;;;-1.66;84.12
51147;BME280;37207;53.060;18.726;2023-03-16T03:40:19;101079.86;;;-1.67;83.82
51147;BME280;37207;53.060;18.726;2023-03-16T03:42:48;101084.67;;;-1.67;83.73
51147;BME280;37207;53.060;18.726;2023-03-16T03:45:15;101083.05;;;-1.68;83.95
51147;BME280;37207;53.060;18.726;2023-03-16T03:47:42;101079.64;;;-1.70;83.71
51147;BME280;37207;53.060;18.726;2023-03-16T03:50:12;101080.29;;;-1.73;83.79
51147;BME280;37207;53.060;18.726;2023-03-16T03:53:11;101079.13;;;-1.77;84.04
51147;BME280;37207;53.060;18.726;2023-03-16T03:55:56;101081.45;;;-1.79;83.94
51147;BME280;37207;53.060;18.726;2023-03-16T03:58:23;101077.51;;;-1.80;83.87
51147;BME280;37207;53.060;18.726;2023-03-16T04:00:50;101076.96;;;-1.79;83.91
51147;BME280;37207;53.060;18.726;2023-03-16T04:03:17;101076.42;;;-1.78;84.09
51147;BME280;37207;53.060;18.726;2023-03-16T04:05:44;101078.67;;;-1.78;84.26
51147;BME280;37207;53.060;18.726;2023-03-16T04:08:11;101085.48;;;-1.78;84.01
51147;BME280;37207;53.060;18.726;2023-03-16T04:10:38;101081.06;;;-1.78;83.88
51147;BME280;37207;53.060;18.726;2023-03-16T04:13:05;101081.52;;;-1.80;84.03
51147;BME280;37207;53.060;18.726;2023-03-16T04:15:32;101080.75;;;-1.83;83.92
51147;BME280;37207;53.060;18.726;2023-03-16T04:18:22;101079.28;;;-1.88;84.04
51147;BME280;37207;53.060;18.726;2023-03-16T04:20:50;101085.89;;;-1.91;84.06
51147;BME280;37207;53.060;18.726;2023-03-16T04:23:21;101081.23;;;-1.94;84.15
51147;BME280;37207;53.060;18.726;2023-03-16T04:25:48;101079.54;;;-1.95;84.19
51147;BME280;37207;53.060;18.726;2023-03-16T04:28:16;101081.23;;;-1.98;84.10
51147;BME280;37207;53.060;18.726;2023-03-16T04:30:44;101078.30;;;-2.00;84.20
51147;BME280;37207;53.060;18.726;2023-03-16T04:33:18;101084.02;;;-2.02;84.08
51147;BME280;37207;53.060;18.726;2023-03-16T04:35:44;101091.29;;;-2.04;84.26
51147;BME280;37207;53.060;18.726;2023-03-16T04:38:12;101088.03;;;-2.04;84.40
51147;BME280;37207;53.060;18.726;2023-03-16T04:40:51;101094.15;;;-2.04;84.14
51147;BME280;37207;53.060;18.726;2023-03-16T04:43:21;101094.77;;;-2.07;84.37
51147;BME280;37207;53.060;18.726;2023-03-16T04:45:48;101093.85;;;-2.11;84.01
51147;BME280;37207;53.060;18.726;2023-03-16T04:48:15;101090.37;;;-2.14;84.21
51147;BME280;37207;53.060;18.726;2023-03-16T04:50:43;101090.36;;;-2.18;84.18
51147;BME280;37207;53.060;18.726;2023-03-16T04:53:10;101090.83;;;-2.19;84.18
51147;BME280;37207;53.060;18.726;2023-03-16T04:55:36;101091.91;;;-2.19;84.65
51147;BME280;37207;53.060;18.726;2023-03-16T04:58:03;101095.70;;;-2.18;84.44
51147;BME280;37207;53.060;18.726;2023-03-16T05:00:33;101097.41;;;-2.16;84.19
51147;BME280;37207;53.060;18.726;2023-03-16T05:03:03;101099.73;;;-2.12;84.80
51147;BME280;37207;53.060;18.726;2023-03-16T05:05:30;101098.41;;;-2.08;84.69
51147;BME280;37207;53.060;18.726;2023-03-16T05:07:56;101094.53;;;-2.03;84.73
51147;BME280;37207;53.060;18.726;2023-03-16T05:10:25;101096.02;;;-1.98;84.69
51147;BME280;37207;53.060;18.726;2023-03-16T05:12:51;101096.17;;;-1.94;84.45
51147;BME280;37207;53.060;18.726;2023-03-16T05:15:18;101104.73;;;-1.90;84.45
51147;BME280;37207;53.060;18.726;2023-03-16T05:17:55;101099.23;;;-1.85;84.92
51147;BME280;37207;53.060;18.726;2023-03-16T05:20:22;101106.29;;;-1.79;84.66
51147;BME280;37207;53.060;18.726;2023-03-16T05:22:51;101106.28;;;-1.73;84.27
51147;BME280;37207;53.060;18.726;2023-03-16T05:25:30;101105.88;;;-1.68;84.82
51147;BME280;37207;53.060;18.726;2023-03-16T05:27:57;101105.95;;;-1.63;84.36
51147;BME280;37207;53.060;18.726;2023-03-16T05:30:29;101106.96;;;-1.58;84.57
51147;BME280;37207;53.060;18.726;2023-03-16T05:32:58;101105.77;;;-1.54;84.50
51147;BME280;37207;53.060;18.726;2023-03-16T05:35:25;101108.40;;;-1.52;84.42
51147;BME280;37207;53.060;18.726;2023-03-16T05:37:53;101108.32;;;-1.48;84.65
51147;BME280;37207;53.060;18.726;2023-03-16T05:40:20;101111.88;;;-1.45;84.66
51147;BME280;37207;53.060;18.726;2023-03-16T05:42:56;101114.74;;;-1.43;84.57
51147;BME280;37207;53.060;18.726;2023-03-16T05:45:23;101119.39;;;-1.41;84.56
51147;BME280;37207;53.060;18.726;2023-03-16T05:48:07;101121.55;;;-1.39;85.07
51147;BME280;37207;53.060;18.726;2023-03-16T05:50:36;101127.88;;;-1.38;84.55
51147;BME280;37207;53.060;18.726;2023-03-16T05:53:02;101128.73;;;-1.36;85.08
51147;BME280;37207;53.060;18.726;2023-03-16T05:55:29;101130.42;;;-1.35;84.68
51147;BME280;37207;53.060;18.726;2023-03-16T05:57:59;101128.41;;;-1.32;84.84
51147;BME280;37207;53.060;18.726;2023-03-16T06:00:26;101134.29;;;-1.26;84.51
51147;BME280;37207;53.060;18.726;2023-03-16T06:03:02;101135.90;;;-1.21;84.53
51147;BME280;37207;53.060;18.726;2023-03-16T06:05:31;101133.86;;;-1.14;84.83
51147;BME280;37207;53.060;18.726;2023-03-16T06:07:59;101133.85;;;-1.07;84.78
51147;BME280;37207;53.060;18.726;2023-03-16T06:10:27;101134.12;;;-0.99;84.79
51147;BME280;37207;53.060;18.726;2023-03-16T06:12:53;101136.88;;;-0.91;84.80
51147;BME280;37207;53.060;18.726;2023-03-16T06:15:20;101137.37;;;-0.81;84.80
51147;BME280;37207;53.060;18.726;2023-03-16T06:17:51;101141.02;;;-0.66;84.86
51147;BME280;37207;53.060;18.726;2023-03-16T06:20:18;101137.62;;;-0.51;84.60
51147;BME280;37207;53.060;18.726;2023-03-16T06:22:44;101142.16;;;-0.34;84.60
51147;BME280;37207;53.060;18.726;2023-03-16T06:25:12;101144.73;;;-0.11;84.98
51147;BME280;37207;53.060;18.726;2023-03-16T06:27:40;101147.02;;;0.04;84.44
51147;BME280;37207;53.060;18.726;2023-03-16T06:30:11;101153.41;;;0.10;84.05
51147;BME280;37207;53.060;18.726;2023-03-16T06:32:38;101152.48;;;0.37;84.11
51147;BME280;37207;53.060;18.726;2023-03-16T06:35:08;101147.79;;;0.87;83.66
51147;BME280;37207;53.060;18.726;2023-03-16T06:37:36;101144.25;;;1.23;83.23
51147;BME280;37207;53.060;18.726;2023-03-16T06:40:09;101148.58;;;1.49;83.01
51147;BME280;37207;53.060;18.726;2023-03-16T06:42:36;101152.75;;;1.62;82.67
51147;BME280;37207;53.060;18.726;2023-03-16T06:45:03;101153.92;;;1.84;82.54
51147;BME280;37207;53.060;18.726;2023-03-16T06:47:32;101156.59;;;2.22;82.07
51147;BME280;37207;53.060;18.726;2023-03-16T06:49:58;101151.11;;;2.56;81.61
51147;BME280;37207;53.060;18.726;2023-03-16T06:52:25;101153.83;;;2.69;81.00
51147;BME280;37207;53.060;18.726;2023-03-16T06:54:52;101151.88;;;2.86;80.76
51147;BME280;37207;53.060;18.726;2023-03-16T06:57:19;101154.05;;;2.99;80.54
51147;BME280;37207;53.060;18.726;2023-03-16T06:59:45;101151.04;;;3.09;80.30
51147;BME280;37207;53.060;18.726;2023-03-16T07:02:12;101155.29;;;3.30;80.40
51147;BME280;37207;53.060;18.726;2023-03-16T07:04:40;101154.52;;;3.58;79.37
51147;BME280;37207;53.060;18.726;2023-03-16T07:07:08;101157.54;;;3.70;79.12
51147;BME280;37207;53.060;18.726;2023-03-16T07:09:35;101156.80;;;3.93;79.09
51147;BME280;37207;53.060;18.726;2023-03-16T07:12:02;101159.11;;;4.14;78.88
51147;BME280;37207;53.060;18.726;2023-03-16T07:14:31;101164.03;;;4.51;77.72
51147;BME280;37207;53.060;18.726;2023-03-16T07:16:58;101164.95;;;4.87;77.41
51147;BME280;37207;53.060;18.726;2023-03-16T07:19:25;101167.62;;;5.56;75.96
51147;BME280;37207;53.060;18.726;2023-03-16T07:21:53;101163.81;;;5.97;75.69
51147;BME280;37207;53.060;18.726;2023-03-16T07:24:20;101165.79;;;6.44;75.47
51147;BME280;37207;53.060;18.726;2023-03-16T07:26:48;101160.20;;;7.48;74.23
51147;BME280;37207;53.060;18.726;2023-03-16T07:29:22;101161.50;;;8.19;71.92
51147;BME280;37207;53.060;18.726;2023-03-16T07:31:49;101167.96;;;8.90;70.19
51147;BME280;37207;53.060;18.726;2023-03-16T07:34:18;101183.33;;;10.55;67.74
51147;BME280;37207;53.060;18.726;2023-03-16T07:36:48;101180.40;;;12.16;67.13
51147;BME280;37207;53.060;18.726;2023-03-16T07:39:17;101180.45;;;13.54;65.61
51147;BME280;37207;53.060;18.726;2023-03-16T07:41:44;101177.61;;;14.77;63.67
51147;BME280;37207;53.060;18.726;2023-03-16T07:44:15;101183.92;;;15.82;61.28
51147;BME280;37207;53.060;18.726;2023-03-16T07:46:45;101179.02;;;16.94;59.90
51147;BME280;37207;53.060;18.726;2023-03-16T07:49:12;101178.66;;;17.90;55.13
51147;BME280;37207;53.060;18.726;2023-03-16T07:51:39;101179.64;;;18.90;55.84
51147;BME280;37207;53.060;18.726;2023-03-16T07:54:07;101176.55;;;19.83;53.79
51147;BME280;37207;53.060;18.726;2023-03-16T07:56:34;101174.29;;;20.87;53.34
51147;BME280;37207;53.060;18.726;2023-03-16T07:59:03;101175.59;;;21.67;49.83
51147;BME280;37207;53.060;18.726;2023-03-16T08:01:30;101178.41;;;22.06;46.01
51147;BME280;37207;53.060;18.726;2023-03-16T08:03:57;101182.63;;;21.66;45.72
51147;BME280;37207;53.060;18.726;2023-03-16T08:06:24;101185.64;;;22.00;43.56
51147;BME280;37207;53.060;18.726;2023-03-16T08:08:51;101179.31;;;22.31;42.39
51147;BME280;37207;53.060;18.726;2023-03-16T08:11:27;101182.21;;;22.71;40.76
51147;BME280;37207;53.060;18.726;2023-03-16T08:13:56;101177.54;;;22.91;40.04
51147;BME280;37207;53.060;18.726;2023-03-16T08:16:25;101177.86;;;23.41;41.16
51147;BME280;37207;53.060;18.726;2023-03-16T08:18:55;101176.66;;;24.04;40.69
51147;BME280;37207;53.060;18.726;2023-03-16T08:21:23;101185.07;;;24.40;37.81
51147;BME280;37207;53.060;18.726;2023-03-16T08:23:49;101185.77;;;24.44;37.85
51147;BME280;37207;53.060;18.726;2023-03-16T08:26:19;101182.31;;;23.93;34.80
51147;BME280;37207;53.060;18.726;2023-03-16T08:28:47;101183.77;;;23.29;35.42
51147;BME280;37207;53.060;18.726;2023-03-16T08:31:18;101187.62;;;21.79;37.29
51147;BME280;37207;53.060;18.726;2023-03-16T08:33:54;101188.85;;;19.96;38.07
51147;BME280;37207;53.060;18.726;2023-03-16T08:36:23;101194.02;;;18.32;39.19
51147;BME280;37207;53.060;18.726;2023-03-16T08:38:51;101192.76;;;16.54;40.57
51147;BME280;37207;53.060;18.726;2023-03-16T08:41:20;101197.75;;;15.03;41.59
51147;BME280;37207;53.060;18.726;2023-03-16T08:43:47;101204.40;;;13.52;42.70
51147;BME280;37207;53.060;18.726;2023-03-16T08:46:14;101204.30;;;12.49;44.18
51147;BME280;37207;53.060;18.726;2023-03-16T08:48:48;101201.02;;;13.53;44.93
51147;BME280;37207;53.060;18.726;2023-03-16T08:51:15;101200.74;;;15.23;44.11
51147;BME280;37207;53.060;18.726;2023-03-16T08:53:43;101197.64;;;16.43;43.73
51147;BME280;37207;53.060;18.726;2023-03-16T08:56:11;101200.94;;;16.42;42.47
51147;BME280;37207;53.060;18.726;2023-03-16T08:58:40;101204.76;;;16.11;42.00
51147;BME280;37207;53.060;18.726;2023-03-16T09:01:15;101203.34;;;14.78;42.10
51147;BME280;37207;53.060;18.726;2023-03-16T09:03:45;101198.91;;;13.45;43.98
51147;BME280;37207;53.060;18.726;2023-03-16T09:06:14;101199.19;;;12.44;45.56
51147;BME280;37207;53.060;18.726;2023-03-16T09:08:42;101203.16;;;11.54;46.37
51147;BME280;37207;53.060;18.726;2023-03-16T09:11:15;101206.10;;;10.74;47.71
51147;BME280;37207;53.060;18.726;2023-03-16T09:13:44;101208.94;;;10.08;48.49
51147;BME280;37207;53.060;18.726;2023-03-16T09:16:12;101205.54;;;9.50;49.51
51147;BME280;37207;53.060;18.726;2023-03-16T09:18:39;101206.60;;;9.03;50.58
51147;BME280;37207;53.060;18.726;2023-03-16T09:21:07;101209.83;;;8.53;51.39
51147;BME280;37207;53.060;18.726;2023-03-16T09:23:35;101210.74;;;8.08;51.89
51147;BME280;37207;53.060;18.726;2023-03-16T09:26:08;101214.48;;;7.65;52.58
51147;BME280;37207;53.060;18.726;2023-03-16T09:28:36;101215.43;;;7.26;53.24
51147;BME280;37207;53.060;18.726;2023-03-16T09:31:05;101217.62;;;6.86;54.52
51147;BME280;37207;53.060;18.726;2023-03-16T09:33:32;101219.65;;;6.49;55.16
51147;BME280;37207;53.060;18.726;2023-03-16T09:36:00;101223.23;;;6.21;55.90
51147;BME280;37207;53.060;18.726;2023-03-16T09:38:27;101222.31;;;6.05;56.68
51147;BME280;37207;53.060;18.726;2023-03-16T09:42:01;101223.42;;;5.97;57.16
51147;BME280;37207;53.060;18.726;2023-03-16T09:44:09;101223.49;;;5.98;57.86
51147;BME280;37207;53.060;18.726;2023-03-16T09:46:43;101223.03;;;6.10;58.49
51147;BME280;37207;53.060;18.726;2023-03-16T09:49:14;101231.45;;;6.41;58.71
51147;BME280;37207;53.060;18.726;2023-03-16T09:57:41;101226.13;;;8.23;56.57
51147;BME280;37207;53.060;18.726;2023-03-16T10:05:16;101230.11;;;7.96;54.95
51147;BME280;37207;53.060;18.726;2023-03-16T10:19:47;101249.89;;;5.81;58.89
51147;BME280;37207;53.060;18.726;2023-03-16T10:22:22;101252.71;;;5.40;59.70
51147;BME280;37207;53.060;18.726;2023-03-16T10:27:41;101252.23;;;5.06;60.91
51147;BME280;37207;53.060;18.726;2023-03-16T10:30:26;101252.30;;;4.95;61.44
51147;BME280;37207;53.060;18.726;2023-03-16T10:32:54;101245.55;;;4.88;61.92
51147;BME280;37207;53.060;18.726;2023-03-16T10:35:47;101248.29;;;4.92;61.94
51147;BME280;37207;53.060;18.726;2023-03-16T10:43:53;101262.00;;;4.91;62.46
51147;BME280;37207;53.060;18.726;2023-03-16T10:46:25;101263.67;;;4.81;62.79
51147;BME280;37207;53.060;18.726;2023-03-16T10:48:58;101261.08;;;4.69;63.06
51147;BME280;37207;53.060;18.726;2023-03-16T10:51:34;101264.11;;;4.56;63.55
51147;BME280;37207;53.060;18.726;2023-03-16T10:54:14;101263.74;;;4.49;64.08
51147;BME280;37207;53.060;18.726;2023-03-16T10:56:41;101270.84;;;4.47;64.86
51147;BME280;37207;53.060;18.726;2023-03-16T10:59:34;101275.65;;;4.45;64.71
51147;BME280;37207;53.060;18.726;2023-03-16T11:02:18;101279.05;;;4.43;65.22
51147;BME280;37207;53.060;18.726;2023-03-16T11:04:46;101276.55;;;4.40;65.41
51147;BME280;37207;53.060;18.726;2023-03-16T11:07:20;101284.20;;;4.40;65.86
51147;BME280;37207;53.060;18.726;2023-03-16T11:09:55;101287.08;;;4.34;65.86
51147;BME280;37207;53.060;18.726;2023-03-16T11:12:29;101289.60;;;4.30;66.16
51147;BME280;37207;53.060;18.726;2023-03-16T11:15:08;101295.01;;;4.26;66.83
51147;BME280;37207;53.060;18.726;2023-03-16T11:17:41;101297.52;;;4.21;67.32
51147;BME280;37207;53.060;18.726;2023-03-16T11:20:19;101298.63;;;4.17;67.72
51147;BME280;37207;53.060;18.726;2023-03-16T11:22:48;101299.51;;;4.13;68.12
51147;BME280;37207;53.060;18.726;2023-03-16T11:25:20;101297.10;;;4.15;68.03
51147;BME280;37207;53.060;18.726;2023-03-16T11:30:39;101296.46;;;4.27;68.23
51147;BME280;37207;53.060;18.726;2023-03-16T11:33:11;101296.60;;;4.29;68.11
51147;BME280;37207;53.060;18.726;2023-03-16T11:38:24;101294.29;;;4.30;68.01
51147;BME280;37207;53.060;18.726;2023-03-16T11:41:02;101296.14;;;4.32;68.30
51147;BME280;37207;53.060;18.726;2023-03-16T11:43:52;101295.65;;;4.38;68.20
51147;BME280;37207;53.060;18.726;2023-03-16T11:46:47;101297.98;;;4.53;68.56
51147;BME280;37207;53.060;18.726;2023-03-16T11:57:29;101295.18;;;5.00;68.60
51147;BME280;37207;53.060;18.726;2023-03-16T12:00:23;101290.38;;;5.10;68.29
51147;BME280;37207;53.060;18.726;2023-03-16T12:03:33;101289.01;;;5.15;67.97
51147;BME280;37207;53.060;18.726;2023-03-16T12:06:18;101288.63;;;5.23;68.22
51147;BME280;37207;53.060;18.726;2023-03-16T12:14:36;101290.81;;;5.26;67.81
51147;BME280;37207;53.060;18.726;2023-03-16T12:17:12;101292.52;;;5.27;67.87
51147;BME280;37207;53.060;18.726;2023-03-16T12:19:51;101290.30;;;5.28;68.05
51147;BME280;37207;53.060;18.726;2023-03-16T12:24:48;101293.73;;;5.25;68.01
51147;BME280;37207;53.060;18.726;2023-03-16T12:27:22;101294.26;;;5.20;68.02
51147;BME280;37207;53.060;18.726;2023-03-16T12:30:17;101294.93;;;5.19;68.11
51147;BME280;37207;53.060;18.726;2023-03-16T12:41:50;101293.35;;;4.88;68.76
51147;BME280;37207;53.060;18.726;2023-03-16T12:47:08;101299.80;;;4.81;69.78
51147;BME280;37207;53.060;18.726;2023-03-16T12:49:40;101294.64;;;4.82;69.80
51147;BME280;37207;53.060;18.726;2023-03-16T12:52:10;101297.96;;;4.89;69.64
51147;BME280;37207;53.060;18.726;2023-03-16T12:55:07;101300.60;;;5.05;69.89
51147;BME280;37207;53.060;18.726;2023-03-16T12:57:33;101300.83;;;5.23;69.76
51147;BME280;37207;53.060;18.726;2023-03-16T13:00:00;101300.04;;;5.33;69.61
51147;BME280;37207;53.060;18.726;2023-03-16T13:02:30;101303.71;;;5.41;69.36
51147;BME280;37207;53.060;18.726;2023-03-16T13:05:00;101306.77;;;5.41;68.83
51147;BME280;37207;53.060;18.726;2023-03-16T13:07:29;101305.80;;;5.39;68.94
51147;BME280;37207;53.060;18.726;2023-03-16T13:10:00;101310.54;;;5.38;69.06
51147;BME280;37207;53.060;18.726;2023-03-16T13:12:30;101314.55;;;5.35;68.84
51147;BME280;37207;53.060;18.726;2023-03-16T13:14:58;101309.57;;;5.34;68.85
51147;BME280;37207;53.060;18.726;2023-03-16T13:17:32;101311.65;;;5.32;69.05
51147;BME280;37207;53.060;18.726;2023-03-16T13:20:20;101315.64;;;5.29;69.04
51147;BME280;37207;53.060;18.726;2023-03-16T13:23:05;101314.42;;;5.21;68.97
51147;BME280;37207;53.060;18.726;2023-03-16T13:25:39;101313.89;;;5.18;69.20
51147;BME280;37207;53.060;18.726;2023-03-16T13:28:13;101313.45;;;5.16;69.29
51147;BME280;37207;53.060;18.726;2023-03-16T13:30:48;101320.02;;;5.14;69.18
51147;BME280;37207;53.060;18.726;2023-03-16T13:33:24;101321.55;;;5.12;69.48
51147;BME280;37207;53.060;18.726;2023-03-16T13:35:55;101323.06;;;5.11;69.23
51147;BME280;37207;53.060;18.726;2023-03-16T13:38:24;101324.53;;;5.05;68.89
51147;BME280;37207;53.060;18.726;2023-03-16T13:41:01;101322.78;;;4.98;69.10
51147;BME280;37207;53.060;18.726;2023-03-16T13:43:29;101322.83;;;4.93;69.20
51147;BME280;37207;53.060;18.726;2023-03-16T13:45:58;101321.70;;;4.90;69.53
51147;BME280;37207;53.060;18.726;2023-03-16T13:48:25;101325.59;;;4.92;69.59
51147;BME280;37207;53.060;18.726;2023-03-16T13:50:53;101329.45;;;4.97;69.77
51147;BME280;37207;53.060;18.726;2023-03-16T13:53:26;101333.21;;;5.09;69.78
51147;BME280;37207;53.060;18.726;2023-03-16T13:55:58;101336.02;;;5.34;69.67
51147;BME280;37207;53.060;18.726;2023-03-16T13:58:28;101339.52;;;5.37;69.10
51147;BME280;37207;53.060;18.726;2023-03-16T14:00:58;101339.46;;;5.35;69.08
51147;BME280;37207;53.060;18.726;2023-03-16T14:03:38;101337.89;;;5.28;69.18
51147;BME280;37207;53.060;18.726;2023-03-16T14:06:23;101340.71;;;5.21;69.51
51147;BME280;37207;53.060;18.726;2023-03-16T14:08:57;101342.30;;;5.14;69.34
51147;BME280;37207;53.060;18.726;2023-03-16T14:11:27;101345.45;;;5.07;69.35